Atoka, Oklahoma
Current Conditions -  °F | °C
As of 1:55 PM on Monday 24 Nov 2014 (Local Time) from KAQR Reporting Station
Clear Clear  
Wind Chill: 61°   Ceiling: Unl
Heat Index: 61°   Visibility: 10mi
Dew Point: 16°   Wind: 14mph
Humidity: 17%   Direction: 320°NW
Pressure: 29.99"   Gusts: 23mph
Location:  34.38°N, 96.13°W
Report Text: KAQR 241955Z AUTO 32012G20KT 10SM CLR 16/M09 A2999 RMK AO2
Loading
Personal Weather Stations






























Interactive Weather Map New forecast layout! Learn more

10-Day Weather Forecast

Advertisements
Track Severe Weather on mobile